Time,TemperatureF,DewpointF,PressureIn,WindDirection,WindDirectionDegrees,WindSpeedMPH,WindSpeedGustMPH,Humidity,HourlyPrecipIn,Conditions,Clouds,dailyrainin,SolarRadiationWatts/m^2,SoftwareType,DateUTC
2013-06-01 00:01:00,38.0,9.0,-100.00,NNW,329,4.0,11.0,30,0.00,,,0.02,0.000000,,2013-06-01 06:01:00,
2013-06-01 00:32:00,37.0,10.0,-100.00,NNW,334,5.0,13.0,32,0.00,,,0.02,0.000000,,2013-06-01 06:32:00,
2013-06-01 00:42:00,37.0,10.0,-100.00,NNW,334,5.0,13.0,32,0.00,,,0.02,0.000000,,2013-06-01 06:42:00,
2013-06-01 00:52:00,37.0,10.0,-100.00,NNW,334,5.0,13.0,32,0.00,,,0.02,0.000000,,2013-06-01 06:52:00,
2013-06-01 01:01:00,37.0,10.0,-100.00,NNW,334,5.0,13.0,32,0.00,,,0.02,0.000000,,2013-06-01 07:01:00,
2013-06-01 01:32:00,36.0,12.0,-100.00,NW,322,5.0,11.0,36,0.00,,,0.02,0.000000,,2013-06-01 07:32:00,
2013-06-01 01:42:00,36.0,12.0,-100.00,NW,322,5.0,11.0,36,0.00,,,0.02,0.000000,,2013-06-01 07:42:00,
2013-06-01 01:52:00,36.0,12.0,-100.00,NW,322,5.0,11.0,36,0.00,,,0.02,0.000000,,2013-06-01 07:52:00,
2013-06-01 02:02:00,36.0,12.0,-100.00,NW,322,5.0,11.0,36,0.00,,,0.02,0.000000,,2013-06-01 08:02:00,
2013-06-01 02:32:00,34.0,12.0,-100.00,North,2,5.0,11.0,40,0.00,,,0.02,0.000000,,2013-06-01 08:32:00,
2013-06-01 02:42:00,34.0,12.0,-100.00,North,2,5.0,11.0,40,0.00,,,0.02,0.000000,,2013-06-01 08:42:00,
2013-06-01 02:52:00,34.0,12.0,-100.00,North,2,5.0,11.0,40,0.00,,,0.02,0.000000,,2013-06-01 08:52:00,
2013-06-01 03:01:00,34.0,12.0,-100.00,North,2,5.0,11.0,40,0.00,,,0.02,0.000000,,2013-06-01 09:01:00,
2013-06-01 03:33:00,34.0,14.0,-100.00,NNW,338,6.0,11.0,43,0.00,,,0.02,0.000000,,2013-06-01 09:33:00,
2013-06-01 03:43:00,34.0,14.0,-100.00,NNW,338,6.0,11.0,43,0.00,,,0.02,0.000000,,2013-06-01 09:43:00,
2013-06-01 03:53:00,34.0,14.0,-100.00,NNW,338,6.0,11.0,43,0.00,,,0.02,0.000000,,2013-06-01 09:53:00,
2013-06-01 04:02:00,34.0,14.0,-100.00,NNW,338,6.0,11.0,43,0.00,,,0.02,0.000000,,2013-06-01 10:02:00,
2013-06-01 04:33:00,34.0,15.0,-100.00,NNW,332,6.0,14.0,45,0.00,,,0.02,0.000000,,2013-06-01 10:33:00,
2013-06-01 04:42:00,34.0,15.0,-100.00,NNW,332,6.0,14.0,45,0.00,,,0.02,0.000000,,2013-06-01 10:42:00,
2013-06-01 04:52:00,34.0,15.0,-100.00,NNW,332,6.0,14.0,45,0.00,,,0.02,0.000000,,2013-06-01 10:52:00,
2013-06-01 05:02:00,34.0,15.0,-100.00,NNW,332,6.0,14.0,45,0.00,,,0.02,0.000000,,2013-06-01 11:02:00,
2013-06-01 05:33:00,31.0,16.0,-100.00,North,354,5.0,10.0,53,0.00,,,0.02,0.000000,,2013-06-01 11:33:00,
2013-06-01 05:42:00,31.0,16.0,-100.00,North,354,5.0,10.0,53,0.00,,,0.02,0.000000,,2013-06-01 11:42:00,
2013-06-01 05:52:00,31.0,16.0,-100.00,North,354,5.0,10.0,53,0.00,,,0.02,0.000000,,2013-06-01 11:52:00,
2013-06-01 06:01:00,31.0,16.0,-100.00,North,354,5.0,10.0,53,0.00,,,0.02,0.000000,,2013-06-01 12:01:00,
2013-06-01 06:32:00,31.0,17.0,-100.00,NNW,343,4.0,8.0,56,0.00,,,0.02,5.000000,,2013-06-01 12:32:00,
2013-06-01 06:42:00,31.0,17.0,-100.00,NNW,343,4.0,8.0,56,0.00,,,0.02,5.000000,,2013-06-01 12:42:00,
2013-06-01 06:52:00,31.0,17.0,-100.00,NNW,343,4.0,8.0,56,0.00,,,0.02,5.000000,,2013-06-01 12:52:00,
2013-06-01 07:01:00,31.0,17.0,-100.00,NNW,343,4.0,8.0,56,0.00,,,0.02,5.000000,,2013-06-01 13:01:00,
2013-06-01 07:32:00,37.0,21.0,-100.00,NNE,24,4.0,7.0,51,0.00,,,0.02,157.000000,,2013-06-01 13:32:00,
2013-06-01 07:42:00,37.0,21.0,-100.00,NNE,24,4.0,7.0,51,0.00,,,0.02,157.000000,,2013-06-01 13:42:00,
2013-06-01 07:52:00,37.0,21.0,-100.00,NNE,24,4.0,7.0,51,0.00,,,0.02,157.000000,,2013-06-01 13:52:00,
2013-06-01 08:02:00,37.0,21.0,-100.00,NNE,24,4.0,7.0,51,0.00,,,0.02,157.000000,,2013-06-01 14:02:00,
2013-06-01 08:32:00,43.0,22.0,-100.00,NNE,29,4.0,11.0,43,0.00,,,0.00,403.000000,,2013-06-01 14:32:00,
2013-06-01 08:42:00,43.0,22.0,-100.00,NNE,29,4.0,11.0,43,0.00,,,0.00,403.000000,,2013-06-01 14:42:00,
2013-06-01 08:52:00,43.0,22.0,-100.00,NNE,29,4.0,11.0,43,0.00,,,0.00,403.000000,,2013-06-01 14:52:00,
2013-06-01 09:02:00,43.0,22.0,-100.00,NNE,29,4.0,11.0,43,0.00,,,0.00,403.000000,,2013-06-01 15:02:00,
2013-06-01 09:33:00,44.0,19.0,-100.00,NE,34,6.0,14.0,37,0.00,,,0.00,645.000000,,2013-06-01 15:33:00,
2013-06-01 09:43:00,44.0,19.0,-100.00,NE,34,6.0,14.0,37,0.00,,,0.00,645.000000,,2013-06-01 15:43:00,
2013-06-01 09:53:00,44.0,19.0,-100.00,NE,34,6.0,14.0,37,0.00,,,0.00,645.000000,,2013-06-01 15:53:00,
2013-06-01 10:03:00,44.0,19.0,-100.00,NE,34,6.0,14.0,37,0.00,,,0.00,645.000000,,2013-06-01 16:03:00,
2013-06-01 10:33:00,48.0,20.0,-100.00,North,4,6.0,14.0,33,0.00,,,0.00,878.000000,,2013-06-01 16:33:00,
2013-06-01 10:42:00,48.0,20.0,-100.00,North,4,6.0,14.0,33,0.00,,,0.00,878.000000,,2013-06-01 16:42:00,
2013-06-01 10:52:00,48.0,20.0,-100.00,North,4,6.0,14.0,33,0.00,,,0.00,878.000000,,2013-06-01 16:52:00,
2013-06-01 11:02:00,48.0,20.0,-100.00,North,4,6.0,14.0,33,0.00,,,0.00,878.000000,,2013-06-01 17:02:00,
2013-06-01 11:32:00,51.0,20.0,-100.00,North,354,6.0,15.0,29,0.00,,,0.00,1049.000000,,2013-06-01 17:32:00,
2013-06-01 11:42:00,51.0,20.0,-100.00,North,354,6.0,15.0,29,0.00,,,0.00,1049.000000,,2013-06-01 17:42:00,
2013-06-01 11:52:00,51.0,20.0,-100.00,North,354,6.0,15.0,29,0.00,,,0.00,1049.000000,,2013-06-01 17:52:00,
2013-06-01 12:01:00,51.0,20.0,-100.00,North,354,6.0,15.0,29,0.00,,,0.00,1049.000000,,2013-06-01 18:01:00,
2013-06-01 12:32:00,55.0,18.0,-100.00,NNE,26,6.0,13.0,23,0.00,,,0.00,1165.000000,,2013-06-01 18:32:00,
2013-06-01 12:42:00,55.0,18.0,-100.00,NNE,26,6.0,13.0,23,0.00,,,0.00,1165.000000,,2013-06-01 18:42:00,
2013-06-01 12:52:00,55.0,18.0,-100.00,NNE,26,6.0,13.0,23,0.00,,,0.00,1165.000000,,2013-06-01 18:52:00,
2013-06-01 13:02:00,55.0,18.0,-100.00,NNE,26,6.0,13.0,23,0.00,,,0.00,1165.000000,,2013-06-01 19:02:00,
2013-06-01 13:32:00,56.0,16.0,-100.00,North,5,7.0,14.0,20,0.00,,,0.00,1222.000000,,2013-06-01 19:32:00,
2013-06-01 13:42:00,56.0,16.0,-100.00,North,5,7.0,14.0,20,0.00,,,0.00,1222.000000,,2013-06-01 19:42:00,
2013-06-01 13:52:00,56.0,16.0,-100.00,North,5,7.0,14.0,20,0.00,,,0.00,1222.000000,,2013-06-01 19:52:00,
2013-06-01 14:01:00,56.0,16.0,-100.00,North,5,7.0,14.0,20,0.00,,,0.00,1222.000000,,2013-06-01 20:01:00,
2013-06-01 14:32:00,58.0,17.0,-100.00,NNE,24,7.0,15.0,20,0.00,,,0.00,1209.000000,,2013-06-01 20:32:00,
2013-06-01 14:42:00,58.0,17.0,-100.00,NNE,24,7.0,15.0,20,0.00,,,0.00,1209.000000,,2013-06-01 20:42:00,
2013-06-01 14:52:00,58.0,17.0,-100.00,NNE,24,7.0,15.0,20,0.00,,,0.00,1209.000000,,2013-06-01 20:52:00,
2013-06-01 15:01:00,58.0,17.0,-100.00,NNE,24,7.0,15.0,20,0.00,,,0.00,1209.000000,,2013-06-01 21:01:00,
2013-06-01 15:33:00,61.0,17.0,-100.00,NNW,333,7.0,26.0,18,0.00,,,0.00,1148.000000,,2013-06-01 21:33:00,
2013-06-01 15:43:00,61.0,17.0,-100.00,NNW,333,7.0,26.0,18,0.00,,,0.00,1148.000000,,2013-06-01 21:43:00,
2013-06-01 15:53:00,61.0,17.0,-100.00,NNW,333,7.0,26.0,18,0.00,,,0.00,1148.000000,,2013-06-01 21:53:00,
2013-06-01 16:03:00,61.0,17.0,-100.00,NNW,333,7.0,26.0,18,0.00,,,0.00,1148.000000,,2013-06-01 22:03:00,
2013-06-01 16:33:00,61.0,16.0,-100.00,WNW,293,6.0,15.0,17,0.00,,,0.00,1023.000000,,2013-06-01 22:33:00,
2013-06-01 16:42:00,61.0,16.0,-100.00,WNW,293,6.0,15.0,17,0.00,,,0.00,1023.000000,,2013-06-01 22:42:00,
2013-06-01 16:53:00,61.0,16.0,-100.00,WNW,293,6.0,15.0,17,0.00,,,0.00,1023.000000,,2013-06-01 22:53:00,
2013-06-01 17:02:00,61.0,16.0,-100.00,WNW,293,6.0,15.0,17,0.00,,,0.00,1023.000000,,2013-06-01 23:02:00,
2013-06-01 17:32:00,61.0,11.0,-100.00,NW,311,6.0,14.0,14,0.00,,,0.00,847.000000,,2013-06-01 23:32:00,
2013-06-01 17:42:00,61.0,11.0,-100.00,NW,311,6.0,14.0,14,0.00,,,0.00,847.000000,,2013-06-01 23:42:00,
2013-06-01 17:52:00,61.0,11.0,-100.00,NW,311,6.0,14.0,14,0.00,,,0.00,847.000000,,2013-06-01 23:52:00,
2013-06-01 18:02:00,61.0,11.0,-100.00,NW,311,6.0,14.0,14,0.00,,,0.00,847.000000,,2013-06-02 00:02:00,
2013-06-01 18:32:00,61.0,16.0,-100.00,WNW,301,5.0,13.0,17,0.00,,,0.00,630.000000,,2013-06-02 00:32:00,
2013-06-01 18:42:00,61.0,16.0,-100.00,WNW,301,5.0,13.0,17,0.00,,,0.00,630.000000,,2013-06-02 00:42:00,
2013-06-01 18:52:00,61.0,16.0,-100.00,WNW,301,5.0,13.0,17,0.00,,,0.00,630.000000,,2013-06-02 00:52:00,
2013-06-01 19:01:00,61.0,16.0,-100.00,WNW,301,5.0,13.0,17,0.00,,,0.00,630.000000,,2013-06-02 01:01:00,
2013-06-01 19:32:00,59.0,18.0,-100.00,WNW,300,4.0,12.0,20,0.00,,,0.00,390.000000,,2013-06-02 01:32:00,
2013-06-01 19:42:00,59.0,18.0,-100.00,WNW,300,4.0,12.0,20,0.00,,,0.00,390.000000,,2013-06-02 01:42:00,
2013-06-01 19:52:00,59.0,18.0,-100.00,WNW,300,4.0,12.0,20,0.00,,,0.00,390.000000,,2013-06-02 01:52:00,
2013-06-01 20:01:00,59.0,18.0,-100.00,WNW,300,4.0,12.0,20,0.00,,,0.00,390.000000,,2013-06-02 02:01:00,
2013-06-01 20:32:00,52.0,17.0,-100.00,NNE,13,3.0,9.0,25,0.00,,,0.00,79.000000,,2013-06-02 02:32:00,
2013-06-01 20:42:00,52.0,17.0,-100.00,NNE,13,3.0,9.0,25,0.00,,,0.00,79.000000,,2013-06-02 02:42:00,
2013-06-01 20:52:00,52.0,17.0,-100.00,NNE,13,3.0,9.0,25,0.00,,,0.00,79.000000,,2013-06-02 02:52:00,
2013-06-01 21:02:00,52.0,17.0,-100.00,NNE,13,3.0,9.0,25,0.00,,,0.00,79.000000,,2013-06-02 03:02:00,
2013-06-01 21:33:00,45.0,20.0,-100.00,NW,308,2.0,5.0,36,0.00,,,0.00,3.000000,,2013-06-02 03:33:00,
2013-06-01 21:43:00,45.0,20.0,-100.00,NW,308,2.0,5.0,36,0.00,,,0.00,3.000000,,2013-06-02 03:43:00,
2013-06-01 21:53:00,45.0,20.0,-100.00,NW,308,2.0,5.0,36,0.00,,,0.00,3.000000,,2013-06-02 03:53:00,
2013-06-01 22:02:00,45.0,20.0,-100.00,NW,308,2.0,5.0,36,0.00,,,0.00,3.000000,,2013-06-02 04:02:00,
2013-06-01 22:33:00,41.0,20.0,-100.00,West,264,3.0,6.0,42,0.00,,,0.00,0.000000,,2013-06-02 04:33:00,
2013-06-01 22:42:00,41.0,20.0,-100.00,West,264,3.0,6.0,42,0.00,,,0.00,0.000000,,2013-06-02 04:42:00,
2013-06-01 22:53:00,41.0,20.0,-100.00,West,264,3.0,6.0,42,0.00,,,0.00,0.000000,,2013-06-02 04:53:00,
2013-06-01 23:02:00,41.0,20.0,-100.00,West,264,3.0,6.0,42,0.00,,,0.00,0.000000,,2013-06-02 05:02:00,
2013-06-01 23:32:00,43.0,23.0,-100.00,SSW,211,3.0,7.0,45,0.00,,,0.00,0.000000,,2013-06-02 05:32:00,
2013-06-01 23:42:00,43.0,23.0,-100.00,SSW,211,3.0,7.0,45,0.00,,,0.00,0.000000,,2013-06-02 05:42:00,
2013-06-01 23:52:00,43.0,23.0,-100.00,SSW,211,3.0,7.0,45,0.00,,,0.00,0.000000,,2013-06-02 05:52:00,